Time;durP1;ratioP1;P1;durP2;ratioP2;P2;SDS_P1;SDS_P2;PMS_P1;PMS_P2;Temp;Humidity;BMP_temperature;BMP_pressure;BME280_temperature;BME280_humidity;BME280_pressure;Samples;Min_cycle;Max_cycle;Signal;HPM_P1;HPM_P2
2022/07/04 00:00:09;;;;;;;1.23;1.13;;;15.60;99.90;;;;;;5075776;28;20163;-67
2022/07/04 00:02:40;;;;;;;1.30;0.80;;;15.60;99.90;;;;;;5074522;28;20178;-68
2022/07/04 00:05:10;;;;;;;2.77;1.37;;;15.60;99.90;;;;;;5075545;28;20511;-67
2022/07/04 00:07:36;;;;;;;1.17;0.90;;;15.50;99.90;;;;;;5074374;28;20436;-68
2022/07/04 00:10:03;;;;;;;4.03;1.60;;;15.50;99.90;;;;;;5075388;28;20413;-68
2022/07/04 00:12:29;;;;;;;1.30;1.00;;;15.50;99.90;;;;;;5074813;28;20409;-68
2022/07/04 00:14:54;;;;;;;1.40;1.20;;;15.40;99.90;;;;;;5073935;28;20423;-67
2022/07/04 00:17:20;;;;;;;2.57;1.40;;;15.40;99.90;;;;;;5075174;28;20181;-67
2022/07/04 00:19:45;;;;;;;5.40;1.40;;;15.30;99.90;;;;;;5074184;28;20754;-68
2022/07/04 00:22:11;;;;;;;2.10;1.40;;;15.30;99.90;;;;;;5075545;28;20166;-68
2022/07/04 00:24:37;;;;;;;1.40;1.20;;;15.30;99.90;;;;;;5074945;28;20224;-67
2022/07/04 00:27:02;;;;;;;2.30;1.43;;;15.20;99.90;;;;;;5073473;28;20178;-69
2022/07/04 00:29:29;;;;;;;1.87;1.33;;;15.20;99.90;;;;;;5074216;28;20868;-68
2022/07/04 00:31:55;;;;;;;1.87;1.33;;;15.20;99.90;;;;;;5074692;28;20158;-69
2022/07/04 00:34:20;;;;;;;2.43;1.67;;;15.20;99.90;;;;;;5074201;28;20396;-68
2022/07/04 00:36:46;;;;;;;3.30;1.23;;;15.10;99.90;;;;;;5074577;28;20941;-68
2022/07/04 00:39:11;;;;;;;1.20;1.00;;;15.10;99.90;;;;;;5074548;28;20194;-69
2022/07/04 00:41:37;;;;;;;3.63;1.17;;;15.10;99.90;;;;;;5074559;28;20178;-68
2022/07/04 00:44:05;;;;;;;1.87;1.27;;;15.10;99.90;;;;;;5074380;28;20202;-69
2022/07/04 00:46:31;;;;;;;3.03;1.27;;;15.10;99.90;;;;;;5072820;28;20202;-68
2022/07/04 00:48:57;;;;;;;1.30;1.00;;;15.00;99.90;;;;;;5074164;28;20447;-68
2022/07/04 00:51:23;;;;;;;1.80;1.10;;;15.00;99.90;;;;;;5074313;28;20172;-68
2022/07/04 00:53:50;;;;;;;1.30;0.87;;;15.00;99.90;;;;;;5073056;28;20277;-68
2022/07/04 00:56:16;;;;;;;2.20;1.03;;;14.90;99.90;;;;;;5072943;28;20412;-68
2022/07/04 00:58:41;;;;;;;1.63;1.20;;;14.90;99.90;;;;;;5074049;28;20436;-68
2022/07/04 01:01:07;;;;;;;6.93;1.33;;;14.80;99.90;;;;;;5073236;28;20786;-67
2022/07/04 01:03:32;;;;;;;1.90;1.30;;;14.90;99.90;;;;;;5074619;28;20174;-68
2022/07/04 01:06:00;;;;;;;1.70;1.40;;;14.80;99.90;;;;;;5074565;28;20280;-68
2022/07/04 01:08:26;;;;;;;1.50;1.10;;;14.80;99.90;;;;;;5074784;28;20178;-68
2022/07/04 01:10:51;;;;;;;1.53;0.90;;;14.70;99.90;;;;;;5074598;28;20384;-68
2022/07/04 01:13:24;;;;;;;1.70;1.10;;;14.70;99.90;;;;;;5072808;28;20194;-68
2022/07/04 01:15:50;;;;;;;1.40;1.20;;;14.70;99.90;;;;;;5073565;28;20443;-67
2022/07/04 01:18:17;;;;;;;2.63;1.20;;;14.70;99.90;;;;;;5073695;28;20424;-68
2022/07/04 01:20:43;;;;;;;1.73;1.17;;;14.60;99.90;;;;;;5072537;28;20444;-68
2022/07/04 01:23:09;;;;;;;1.47;0.93;;;14.60;99.90;;;;;;5073898;28;20447;-68
2022/07/04 01:25:35;;;;;;;1.37;0.90;;;14.60;99.90;;;;;;5073366;28;20881;-67
2022/07/04 01:28:00;;;;;;;1.87;1.10;;;14.60;99.90;;;;;;5072417;28;20452;-67
2022/07/04 01:30:27;;;;;;;1.40;0.87;;;14.60;99.90;;;;;;5073589;28;20170;-68
2022/07/04 01:32:53;;;;;;;2.17;1.20;;;14.50;99.90;;;;;;5073836;28;20166;-69
2022/07/04 01:35:19;;;;;;;1.07;0.80;;;14.50;99.90;;;;;;5073230;28;20404;-68
2022/07/04 01:37:45;;;;;;;1.47;1.00;;;14.50;99.90;;;;;;5073447;28;20163;-69
2022/07/04 01:40:12;;;;;;;2.00;1.10;;;14.40;99.90;;;;;;5073380;28;20400;-68
2022/07/04 01:42:38;;;;;;;2.67;1.00;;;14.40;99.90;;;;;;5073399;28;20631;-68
2022/07/04 01:45:04;;;;;;;2.13;1.27;;;14.40;99.90;;;;;;5072931;28;21051;-68
2022/07/04 01:47:29;;;;;;;1.00;0.80;;;14.40;99.90;;;;;;5073129;28;20407;-67
2022/07/04 01:49:55;;;;;;;2.30;0.97;;;14.30;99.90;;;;;;5072200;28;20767;-68
2022/07/04 01:52:21;;;;;;;1.13;1.03;;;14.30;99.90;;;;;;5072951;28;20582;-67
2022/07/04 01:54:46;;;;;;;2.00;1.47;;;14.30;99.90;;;;;;5072805;28;20169;-67
2022/07/04 01:57:12;;;;;;;2.03;1.40;;;14.30;99.90;;;;;;5072970;28;20166;-68
2022/07/04 02:02:23;;;;;;;4.33;3.63;;;14.20;99.90;;;;;;5074346;28;20411;-68
2022/07/04 02:04:49;;;;;;;2.50;1.73;;;14.20;99.90;;;;;;5073328;28;20401;-67
2022/07/04 02:07:14;;;;;;;11.77;1.47;;;14.20;99.90;;;;;;5072703;28;20400;-68
2022/07/04 02:09:40;;;;;;;2.17;1.00;;;14.20;99.90;;;;;;5072707;28;20182;-68
2022/07/04 02:14:50;;;;;;;1.27;0.93;;;14.20;99.90;;;;;;5072534;28;20262;-68
2022/07/04 02:17:15;;;;;;;1.37;1.00;;;14.10;99.90;;;;;;5072572;28;20428;-68
2022/07/04 02:19:41;;;;;;;1.10;0.90;;;14.10;99.90;;;;;;5072682;28;20204;-67
2022/07/04 02:22:07;;;;;;;1.60;1.03;;;14.10;99.90;;;;;;5072702;28;20162;-67
2022/07/04 02:24:32;;;;;;;1.20;0.90;;;14.10;99.90;;;;;;5072473;28;20166;-68
2022/07/04 02:26:58;;;;;;;1.30;1.20;;;14.00;99.90;;;;;;5072668;28;20198;-68
2022/07/04 02:29:24;;;;;;;1.40;0.87;;;14.00;99.90;;;;;;5072685;28;20620;-68
2022/07/04 02:31:49;;;;;;;1.53;1.40;;;14.00;99.90;;;;;;5072564;28;20169;-68
2022/07/04 02:34:15;;;;;;;1.40;1.30;;;14.00;99.90;;;;;;5072252;28;20211;-68
2022/07/04 02:36:40;;;;;;;2.70;1.17;;;14.00;99.90;;;;;;5072410;28;20193;-68
2022/07/04 02:39:06;;;;;;;3.87;1.43;;;14.00;99.90;;;;;;5072460;28;20254;-69
2022/07/04 02:41:33;;;;;;;1.40;0.90;;;13.90;99.90;;;;;;5072793;28;20173;-68
2022/07/04 02:43:59;;;;;;;1.37;1.10;;;13.90;99.90;;;;;;5072427;28;20249;-69
2022/07/04 02:46:24;;;;;;;2.63;1.30;;;13.90;99.90;;;;;;5071995;28;20555;-67
2022/07/04 02:48:50;;;;;;;1.50;0.90;;;13.90;99.90;;;;;;5072254;28;20190;-67
2022/07/04 02:51:15;;;;;;;1.27;1.10;;;13.80;99.90;;;;;;5072545;28;20163;-68
2022/07/04 02:53:42;;;;;;;2.33;1.47;;;13.80;99.90;;;;;;5072058;28;20541;-69
2022/07/04 02:56:08;;;;;;;1.10;0.90;;;13.80;99.90;;;;;;5072043;28;20244;-68
2022/07/04 02:58:34;;;;;;;1.50;1.00;;;13.70;99.90;;;;;;5072257;28;20778;-68
2022/07/04 03:00:59;;;;;;;1.30;1.00;;;13.60;99.90;;;;;;5072253;28;20466;-68
2022/07/04 03:03:25;;;;;;;2.60;1.10;;;13.60;99.90;;;;;;5072047;28;20558;-67
2022/07/04 03:05:51;;;;;;;2.67;1.20;;;13.60;99.90;;;;;;5054431;28;20198;-68
2022/07/04 03:08:16;;;;;;;6.70;1.20;;;13.50;99.90;;;;;;5072256;28;20253;-67
2022/07/04 03:10:42;;;;;;;1.13;1.00;;;13.50;99.90;;;;;;5072445;28;20163;-68
2022/07/04 03:13:07;;;;;;;1.30;1.20;;;13.40;99.90;;;;;;5072500;28;20162;-68
2022/07/04 03:15:33;;;;;;;1.20;0.90;;;13.30;99.90;;;;;;5071878;28;20189;-68
2022/07/04 03:17:59;;;;;;;4.63;1.50;;;13.30;99.90;;;;;;5071403;28;20532;-68
2022/07/04 03:20:25;;;;;;;1.30;1.17;;;13.20;99.90;;;;;;5071741;28;20159;-68
2022/07/04 03:22:51;;;;;;;1.73;1.17;;;13.10;99.90;;;;;;5071672;28;20423;-68
2022/07/04 03:25:17;;;;;;;1.60;1.20;;;13.10;99.90;;;;;;5070108;28;20214;-68
2022/07/04 03:27:42;;;;;;;2.53;1.23;;;13.00;99.90;;;;;;5071661;28;20401;-67
2022/07/04 03:30:08;;;;;;;1.27;1.17;;;13.00;99.90;;;;;;5071630;28;20174;-68
2022/07/04 03:32:34;;;;;;;1.70;1.30;;;13.00;99.90;;;;;;5070719;28;20174;-67
2022/07/04 03:35:00;;;;;;;1.17;0.97;;;13.00;99.90;;;;;;5070497;28;20170;-68
2022/07/04 03:37:25;;;;;;;2.60;1.10;;;12.90;99.90;;;;;;5071963;28;20173;-67
2022/07/04 03:39:51;;;;;;;1.67;1.13;;;12.90;99.90;;;;;;5071858;28;20189;-68
2022/07/04 03:42:16;;;;;;;1.33;0.97;;;12.90;99.90;;;;;;5071748;28;20171;-67
2022/07/04 03:44:42;;;;;;;2.27;1.47;;;12.90;99.90;;;;;;5071343;28;20165;-68
2022/07/04 03:47:07;;;;;;;3.43;1.40;;;12.90;99.90;;;;;;5071763;28;20193;-68
2022/07/04 03:49:33;;;;;;;1.63;1.33;;;12.90;99.90;;;;;;5071317;28;20663;-68
2022/07/04 03:51:58;;;;;;;1.90;1.50;;;12.90;99.90;;;;;;5071866;28;20174;-68
2022/07/04 03:54:28;;;;;;;1.90;1.23;;;12.90;99.90;;;;;;5071025;28;20675;-67
2022/07/04 03:56:53;;;;;;;1.50;1.20;;;12.90;99.90;;;;;;5071976;28;20165;-68
2022/07/04 03:59:19;;;;;;;1.20;1.00;;;13.00;99.90;;;;;;5071515;28;20424;-67
2022/07/04 04:01:45;;;;;;;2.83;1.50;;;13.00;99.90;;;;;;5071901;28;20245;-67
2022/07/04 04:06:55;;;;;;;1.83;1.37;;;13.00;99.90;;;;;;5071533;28;20248;-68
2022/07/04 04:09:21;;;;;;;1.50;1.10;;;13.00;99.90;;;;;;5070177;28;20432;-68
2022/07/04 04:11:46;;;;;;;2.53;1.17;;;13.00;99.90;;;;;;5071569;28;20241;-68
2022/07/04 04:14:12;;;;;;;1.50;1.33;;;13.10;99.90;;;;;;5071299;28;20212;-67
2022/07/04 04:16:38;;;;;;;1.30;1.10;;;13.10;99.90;;;;;;5071503;28;20249;-68
2022/07/04 04:19:04;;;;;;;1.83;1.10;;;13.10;99.90;;;;;;5071348;28;20277;-67
2022/07/04 04:21:30;;;;;;;1.60;1.40;;;13.20;99.90;;;;;;5071711;28;20482;-67
2022/07/04 04:23:55;;;;;;;1.43;1.33;;;13.20;99.90;;;;;;5071457;28;20747;-67
2022/07/04 04:26:21;;;;;;;1.20;1.10;;;13.20;99.90;;;;;;5070931;28;20561;-68
2022/07/04 04:28:47;;;;;;;1.17;1.07;;;13.20;99.90;;;;;;5071391;28;20194;-67
2022/07/04 04:31:14;;;;;;;1.17;0.90;;;13.30;99.90;;;;;;5072984;28;20404;-68
2022/07/04 04:33:40;;;;;;;1.57;1.17;;;13.30;99.90;;;;;;5074807;28;20232;-68
2022/07/04 04:36:06;;;;;;;1.93;1.40;;;13.30;99.90;;;;;;5074593;28;20432;-67
2022/07/04 04:38:31;;;;;;;1.20;1.10;;;13.40;99.90;;;;;;5075037;28;20413;-68
2022/07/04 04:40:57;;;;;;;1.20;1.10;;;13.50;99.90;;;;;;5074751;28;20164;-68
2022/07/04 04:43:23;;;;;;;2.20;1.40;;;13.50;99.90;;;;;;5074662;28;20643;-68
2022/07/04 04:45:48;;;;;;;3.33;1.00;;;13.60;99.90;;;;;;5074246;28;20277;-67
2022/07/04 04:48:14;;;;;;;4.43;1.40;;;13.70;99.90;;;;;;5074513;28;20555;-68
2022/07/04 04:50:40;;;;;;;1.97;1.30;;;13.70;99.90;;;;;;5074461;28;20166;-67
2022/07/04 04:53:05;;;;;;;1.37;1.10;;;13.80;99.90;;;;;;5074589;28;20445;-68
2022/07/04 04:55:31;;;;;;;1.93;1.30;;;13.90;99.90;;;;;;5073038;28;20643;-68
2022/07/04 04:57:57;;;;;;;4.07;1.00;;;14.00;99.90;;;;;;5074583;28;20677;-68
2022/07/04 05:00:22;;;;;;;1.70;1.43;;;14.10;99.90;;;;;;5074397;28;20182;-68
2022/07/04 05:02:48;;;;;;;1.33;1.23;;;14.20;99.90;;;;;;5073290;28;20170;-68
2022/07/04 05:05:13;;;;;;;1.70;1.40;;;14.20;99.90;;;;;;5074195;28;20190;-68
2022/07/04 05:07:39;;;;;;;2.00;1.67;;;14.40;99.90;;;;;;5074225;28;20158;-68
2022/07/04 05:10:05;;;;;;;1.40;1.20;;;14.50;99.90;;;;;;5074221;28;20174;-68
2022/07/04 05:12:31;;;;;;;1.77;1.40;;;14.60;99.90;;;;;;5074301;28;20623;-68
2022/07/04 05:14:57;;;;;;;2.90;1.60;;;14.70;99.90;;;;;;5074093;28;20432;-67
2022/07/04 05:17:22;;;;;;;1.40;1.30;;;14.80;99.90;;;;;;5073907;28;20247;-68
2022/07/04 05:19:48;;;;;;;1.87;1.60;;;15.00;99.90;;;;;;5074011;28;20423;-67
2022/07/04 05:22:14;;;;;;;1.83;1.40;;;15.10;99.90;;;;;;5074147;28;20429;-68
2022/07/04 05:24:40;;;;;;;1.80;1.50;;;15.20;99.90;;;;;;5073646;28;20577;-68
2022/07/04 05:27:07;;;;;;;1.70;1.10;;;15.30;99.90;;;;;;5073708;28;20459;-68
2022/07/04 05:29:33;;;;;;;1.23;1.10;;;15.40;99.90;;;;;;5073718;28;20194;-69
2022/07/04 05:31:59;;;;;;;1.60;1.50;;;15.60;99.90;;;;;;5072456;28;20913;-69
2022/07/04 05:34:24;;;;;;;1.60;1.13;;;15.70;99.90;;;;;;5073334;28;20473;-68
2022/07/04 05:36:50;;;;;;;1.43;1.07;;;15.90;99.90;;;;;;5073655;28;20258;-68
2022/07/04 05:39:16;;;;;;;6.27;1.20;;;16.20;99.90;;;;;;5073523;28;20221;-67
2022/07/04 05:41:42;;;;;;;1.90;1.27;;;16.40;99.90;;;;;;5073118;28;20463;-68
2022/07/04 05:44:08;;;;;;;2.30;1.50;;;16.70;99.90;;;;;;5073509;28;20167;-70
2022/07/04 05:46:34;;;;;;;1.30;1.13;;;17.10;99.90;;;;;;5073088;28;20448;-68
2022/07/04 05:48:59;;;;;;;4.13;1.10;;;17.50;99.90;;;;;;5073292;28;20664;-67
2022/07/04 05:51:25;;;;;;;1.90;1.37;;;18.10;99.90;;;;;;5073678;28;20564;-68
2022/07/04 05:53:50;;;;;;;2.27;1.40;;;18.70;99.90;;;;;;5073733;28;20557;-68
2022/07/04 05:56:16;;;;;;;1.20;1.10;;;19.50;99.90;;;;;;5073600;28;20223;-68
2022/07/04 05:58:42;;;;;;;2.37;1.53;;;20.10;99.90;;;;;;5072164;28;20198;-68
2022/07/04 06:01:08;;;;;;;1.00;0.80;;;20.70;99.90;;;;;;5071926;28;20185;-69
2022/07/04 06:03:36;;;;;;;1.20;1.00;;;21.20;99.90;;;;;;5073411;28;20205;-68
2022/07/04 06:06:03;;;;;;;1.40;1.23;;;21.60;99.90;;;;;;5073067;28;20479;-69
2022/07/04 06:08:29;;;;;;;1.30;1.20;;;22.10;99.90;;;;;;5073167;28;20501;-69
2022/07/04 06:10:54;;;;;;;1.20;1.10;;;22.70;99.90;;;;;;5072918;28;20752;-69
2022/07/04 06:13:20;;;;;;;1.70;1.00;;;23.30;99.90;;;;;;5072976;28;20198;-70
2022/07/04 06:15:46;;;;;;;1.40;1.20;;;24.10;99.90;;;;;;5072558;28;20163;-69
2022/07/04 06:18:12;;;;;;;1.50;1.40;;;24.80;99.90;;;;;;5072649;28;20186;-68
2022/07/04 06:20:39;;;;;;;2.27;1.43;;;25.60;99.90;;;;;;5071575;28;20170;-69
2022/07/04 06:23:05;;;;;;;1.30;1.00;;;26.40;99.90;;;;;;5072638;28;20167;-69
2022/07/04 06:25:31;;;;;;;1.80;1.30;;;27.20;96.80;;;;;;5072365;28;20975;-68
2022/07/04 06:27:57;;;;;;;1.10;0.90;;;28.00;90.70;;;;;;5072796;28;20532;-68
2022/07/04 06:30:22;;;;;;;1.30;1.00;;;28.80;79.90;;;;;;5072865;28;20408;-69
2022/07/04 06:32:56;;;;;;;1.70;1.20;;;29.60;70.00;;;;;;5071883;28;20170;-69
2022/07/04 06:38:09;;;;;;;1.47;1.27;;;31.00;57.40;;;;;;5072769;28;20481;-69
2022/07/04 06:40:36;;;;;;;3.13;1.30;;;31.70;53.40;;;;;;5072760;28;20408;-68
2022/07/04 06:43:03;;;;;;;2.70;1.30;;;32.20;52.30;;;;;;5072196;28;20439;-68
2022/07/04 06:45:28;;;;;;;2.53;1.20;;;32.90;50.50;;;;;;5070979;28;20543;-69
2022/07/04 06:47:54;;;;;;;1.30;1.17;;;33.60;48.80;;;;;;5072515;28;20940;-69
2022/07/04 06:50:20;;;;;;;1.10;0.90;;;34.10;45.70;;;;;;5072420;28;20193;-70
2022/07/04 06:52:45;;;;;;;1.70;1.10;;;34.60;42.90;;;;;;5071961;28;20264;-70
2022/07/04 06:55:11;;;;;;;1.47;1.23;;;35.00;42.40;;;;;;5071811;28;20170;-69
2022/07/04 06:57:37;;;;;;;1.20;1.00;;;35.50;41.60;;;;;;5072176;28;20158;-69
2022/07/04 07:00:04;;;;;;;1.33;0.90;;;36.00;40.20;;;;;;5072271;28;20166;-68
2022/07/04 07:02:30;;;;;;;1.30;0.97;;;36.60;38.50;;;;;;5072352;28;20178;-69
2022/07/04 07:04:56;;;;;;;2.50;1.20;;;37.10;37.20;;;;;;5070531;28;20927;-70
2022/07/04 07:07:24;;;;;;;2.07;1.07;;;37.60;36.20;;;;;;5072447;28;20192;-70
2022/07/04 07:09:50;;;;;;;1.57;1.20;;;38.10;35.40;;;;;;5072145;28;20443;-67
2022/07/04 07:12:16;;;;;;;1.50;1.30;;;38.50;35.20;;;;;;5072196;28;20401;-67
2022/07/04 07:14:41;;;;;;;1.63;1.00;;;39.00;33.00;;;;;;5071994;28;20821;-67
2022/07/04 07:17:07;;;;;;;1.40;1.10;;;39.50;32.70;;;;;;5072258;28;20171;-70
2022/07/04 07:19:33;;;;;;;1.00;0.90;;;39.90;32.00;;;;;;5072054;28;20181;-69
2022/07/04 07:21:59;;;;;;;1.30;1.10;;;40.20;30.90;;;;;;5072038;28;20449;-70
2022/07/04 07:24:25;;;;;;;3.90;3.30;;;40.70;30.60;;;;;;5071784;28;20166;-69
2022/07/04 07:26:52;;;;;;;1.30;0.87;;;41.10;30.00;;;;;;5072120;28;20182;-66
2022/07/04 07:29:17;;;;;;;1.20;1.10;;;41.50;29.00;;;;;;5072128;28;20474;-67
2022/07/04 07:31:43;;;;;;;1.87;1.10;;;41.90;28.80;;;;;;5072178;28;20475;-67
2022/07/04 07:34:09;;;;;;;1.50;1.10;;;42.40;28.10;;;;;;5072075;28;20570;-67
2022/07/04 07:36:34;;;;;;;1.10;1.00;;;42.80;27.60;;;;;;5071870;28;20201;-67
2022/07/04 07:39:00;;;;;;;2.80;1.30;;;43.30;26.90;;;;;;5072079;28;20194;-67
2022/07/04 07:41:26;;;;;;;1.40;1.30;;;43.80;26.80;;;;;;5072182;28;20166;-67
2022/07/04 07:43:52;;;;;;;3.47;1.57;;;44.10;26.20;;;;;;5072004;28;20174;-66
2022/07/04 07:46:17;;;;;;;1.30;1.20;;;44.50;26.40;;;;;;5071540;28;20666;-66
2022/07/04 07:48:43;;;;;;;1.10;1.00;;;44.80;26.30;;;;;;5071780;28;20186;-68
2022/07/04 07:51:10;;;;;;;1.37;1.17;;;45.20;26.20;;;;;;5071907;28;20171;-67
2022/07/04 07:53:36;;;;;;;1.30;1.20;;;45.70;26.10;;;;;;5071827;28;20565;-68
2022/07/04 07:56:01;;;;;;;1.10;1.00;;;46.10;26.00;;;;;;5070558;28;20420;-67
2022/07/04 07:58:27;;;;;;;1.50;1.30;;;46.50;25.60;;;;;;5071780;28;20281;-68
2022/07/04 08:00:53;;;;;;;1.60;1.30;;;46.90;25.50;;;;;;5071715;28;20548;-69
2022/07/04 08:06:03;;;;;;;1.23;1.13;;;47.80;24.50;;;;;;5074810;28;20208;-69
2022/07/04 08:08:28;;;;;;;1.20;1.00;;;48.30;23.90;;;;;;5074469;28;20494;-68
2022/07/04 08:10:54;;;;;;;1.20;1.10;;;48.70;24.00;;;;;;5075784;28;20171;-68
2022/07/04 08:13:20;;;;;;;1.20;1.10;;;49.20;23.40;;;;;;5075858;28;20174;-68
2022/07/04 08:15:46;;;;;;;1.17;1.07;;;49.50;21.80;;;;;;5076017;28;20241;-68
2022/07/04 08:18:12;;;;;;;1.10;1.00;;;49.80;22.10;;;;;;5075678;28;20213;-69
2022/07/04 08:20:37;;;;;;;1.93;1.60;;;50.10;22.20;;;;;;5075900;28;20943;-69
2022/07/04 08:23:03;;;;;;;1.37;1.27;;;50.40;22.00;;;;;;5075659;28;20276;-68
2022/07/04 08:25:28;;;;;;;1.70;1.30;;;50.60;22.00;;;;;;5075487;28;20229;-68
2022/07/04 08:27:54;;;;;;;1.37;1.20;;;51.00;22.10;;;;;;5075656;28;20550;-69
2022/07/04 08:30:20;;;;;;;2.00;1.20;;;51.40;21.80;;;;;;5075649;28;20173;-69
2022/07/04 08:32:46;;;;;;;1.50;1.40;;;51.70;21.30;;;;;;5075596;28;20180;-69
2022/07/04 08:35:11;;;;;;;1.60;1.50;;;52.00;20.90;;;;;;5075351;28;20537;-70
2022/07/04 08:37:37;;;;;;;1.50;1.40;;;52.40;21.10;;;;;;5075106;28;20376;-68
2022/07/04 08:40:06;;;;;;;1.40;1.30;;;52.90;20.60;;;;;;5075084;28;20195;-69
2022/07/04 08:42:37;;;;;;;1.40;1.30;;;53.10;20.40;;;;;;5074923;28;20212;-69
2022/07/04 08:45:03;;;;;;;1.60;1.50;;;53.60;20.50;;;;;;5074740;28;20409;-69
2022/07/04 08:47:33;;;;;;;1.57;1.47;;;53.90;20.10;;;;;;5074150;28;20400;-69
2022/07/04 08:50:22;;;;;;;1.50;1.40;;;54.20;19.80;;;;;;5073534;28;20383;-69
2022/07/04 08:52:54;;;;;;;1.53;1.43;;;54.50;20.00;;;;;;5074242;28;20398;-75
2022/07/04 09:00:50;;;;;;;1.50;1.40;;;48.20;20.30;;;;;;5074502;28;20734;-74
2022/07/04 09:03:19;;;;;;;1.20;1.10;;;46.60;21.20;;;;;;5074293;28;20876;-74
2022/07/04 09:05:44;;;;;;;1.40;1.30;;;46.30;21.90;;;;;;5073993;28;20907;-74
2022/07/04 09:08:10;;;;;;;1.80;1.43;;;45.50;22.50;;;;;;5074034;28;20424;-74
2022/07/04 09:10:36;;;;;;;1.50;1.40;;;44.90;22.30;;;;;;5074183;28;20197;-74
2022/07/04 09:13:03;;;;;;;1.37;1.27;;;45.60;22.40;;;;;;5074086;28;20219;-74
2022/07/04 09:15:29;;;;;;;1.30;1.20;;;45.10;22.60;;;;;;5073694;28;20452;-75
2022/07/04 09:17:55;;;;;;;1.50;1.40;;;46.00;22.90;;;;;;5073385;28;20424;-74
2022/07/04 09:20:23;;;;;;;1.93;1.33;;;45.70;23.10;;;;;;5073161;28;20177;-74
2022/07/04 09:22:50;;;;;;;2.20;2.00;;;45.70;22.50;;;;;;5073955;28;20392;-74
2022/07/04 09:25:17;;;;;;;1.67;1.57;;;46.10;22.90;;;;;;5073247;28;20384;-74
2022/07/04 09:27:51;;;;;;;1.70;1.60;;;46.10;21.90;;;;;;5073648;28;20424;-74
2022/07/04 09:30:19;;;;;;;2.03;1.47;;;46.10;22.40;;;;;;5073595;28;20404;-75
2022/07/04 09:32:58;;;;;;;1.50;1.33;;;46.20;22.80;;;;;;5073741;28;20415;-74
2022/07/04 09:35:24;;;;;;;1.37;1.27;;;46.00;22.20;;;;;;5073784;28;20594;-74
2022/07/04 09:37:54;;;;;;;1.60;1.50;;;46.60;21.50;;;;;;5073459;28;20423;-74
2022/07/04 09:41:24;;;;;;;1.33;1.23;;;46.10;22.10;;;;;;5073541;28;20411;-74
2022/07/04 09:43:24;;;;;;;1.53;1.43;;;46.60;21.60;;;;;;5073320;28;20901;-74
2022/07/04 09:45:57;;;;;;;1.40;1.30;;;46.30;22.20;;;;;;5073299;28;20454;-74
2022/07/04 09:48:24;;;;;;;1.60;1.50;;;46.70;22.30;;;;;;5073286;28;20424;-74
2022/07/04 09:50:50;;;;;;;1.87;1.70;;;47.20;21.90;;;;;;5073381;28;20408;-74
2022/07/04 09:53:16;;;;;;;1.90;1.80;;;47.10;21.90;;;;;;5073140;28;20929;-74
2022/07/04 09:55:41;;;;;;;1.70;1.60;;;47.80;21.70;;;;;;5072896;28;20455;-74
2022/07/04 09:58:12;;;;;;;1.50;1.40;;;46.60;21.70;;;;;;5073098;28;20256;-75
2022/07/04 10:00:43;;;;;;;1.40;1.30;;;46.80;21.30;;;;;;5073251;28;20544;-74
2022/07/04 10:03:28;;;;;;;1.47;1.37;;;46.40;21.70;;;;;;5073009;28;20937;-74
2022/07/04 10:06:10;;;;;;;1.40;1.30;;;46.60;22.20;;;;;;5071440;28;20451;-74
2022/07/04 10:08:36;;;;;;;1.37;1.27;;;47.00;22.10;;;;;;5072948;28;20423;-74
2022/07/04 10:11:03;;;;;;;1.93;1.80;;;46.60;21.30;;;;;;5072947;28;20400;-74
2022/07/04 10:13:30;;;;;;;2.80;1.87;;;46.80;22.10;;;;;;5072837;28;20174;-74
2022/07/04 10:15:56;;;;;;;1.70;1.60;;;47.50;22.40;;;;;;5072495;28;20444;-74
2022/07/04 10:18:23;;;;;;;1.77;1.67;;;48.00;22.30;;;;;;5072677;28;20415;-75
2022/07/04 10:20:50;;;;;;;2.07;1.50;;;48.50;21.30;;;;;;5072761;28;20224;-74
2022/07/04 10:23:16;;;;;;;1.83;1.73;;;48.20;21.80;;;;;;5072641;28;20461;-75
2022/07/04 10:25:45;;;;;;;1.87;1.77;;;48.40;22.40;;;;;;5072342;28;20450;-74
2022/07/04 10:28:11;;;;;;;1.97;1.83;;;49.00;21.80;;;;;;5072541;28;20420;-74
2022/07/04 10:30:38;;;;;;;1.87;1.77;;;49.20;20.80;;;;;;5072735;28;20920;-75
2022/07/04 10:33:07;;;;;;;1.90;1.80;;;48.40;21.30;;;;;;5072528;28;20193;-74
2022/07/04 10:36:02;;;;;;;1.70;1.60;;;48.70;21.80;;;;;;5072138;28;20440;-74
2022/07/04 10:38:34;;;;;;;2.00;1.90;;;49.10;22.00;;;;;;5065271;28;21040;-74
2022/07/04 10:41:07;;;;;;;2.80;2.10;;;49.40;21.60;;;;;;5072515;28;20783;-74
2022/07/04 10:43:41;;;;;;;2.47;2.27;;;49.40;21.00;;;;;;5072352;28;20404;-75
2022/07/04 10:46:12;;;;;;;2.30;2.20;;;49.30;21.80;;;;;;5072148;28;20404;-74
2022/07/04 10:48:49;;;;;;;2.10;1.97;;;49.80;21.40;;;;;;5072167;28;20432;-74
2022/07/04 10:51:15;;;;;;;1.83;1.73;;;49.00;20.80;;;;;;5072274;28;20486;-74
2022/07/04 10:54:02;;;;;;;1.80;1.70;;;48.30;21.90;;;;;;5070874;28;20432;-75
2022/07/04 10:56:27;;;;;;;1.73;1.63;;;48.20;21.50;;;;;;5071889;28;20542;-75
2022/07/04 10:58:57;;;;;;;1.90;1.80;;;48.30;22.30;;;;;;5072140;28;20597;-74
2022/07/04 11:01:23;;;;;;;2.00;1.90;;;48.60;21.60;;;;;;5072040;28;20424;-74
2022/07/04 11:03:50;;;;;;;1.93;1.83;;;48.40;21.70;;;;;;5072102;28;20404;-74
2022/07/04 11:06:36;;;;;;;2.13;2.03;;;48.80;22.00;;;;;;5070568;28;20184;-74
2022/07/04 11:09:20;;;;;;;2.20;1.90;;;48.70;21.00;;;;;;5073388;28;20436;-75
2022/07/04 11:12:01;;;;;;;2.10;1.90;;;49.40;21.70;;;;;;5072032;28;20400;-74
2022/07/04 11:14:46;;;;;;;2.13;1.93;;;49.20;21.50;;;;;;5071917;28;20772;-74
2022/07/04 11:17:13;;;;;;;2.10;2.00;;;49.80;21.10;;;;;;5072019;28;20483;-74
2022/07/04 11:19:39;;;;;;;2.23;2.13;;;49.70;22.00;;;;;;5071947;28;20432;-74
2022/07/04 11:22:07;;;;;;;4.30;2.87;;;48.30;21.50;;;;;;5071016;28;20420;-74
2022/07/04 11:24:33;;;;;;;1.60;1.50;;;47.30;21.20;;;;;;5071828;28;20458;-74
2022/07/04 11:27:00;;;;;;;1.50;1.40;;;46.10;22.50;;;;;;5072005;28;20423;-74
2022/07/04 11:29:26;;;;;;;6.33;2.60;;;46.00;23.00;;;;;;5072014;28;20441;-75
2022/07/04 11:31:52;;;;;;;1.57;1.47;;;46.30;22.90;;;;;;5072632;28;20419;-74
2022/07/04 11:34:19;;;;;;;2.37;2.00;;;47.00;22.60;;;;;;5071733;28;20755;-74
2022/07/04 11:36:47;;;;;;;2.57;2.03;;;47.50;21.10;;;;;;5072129;28;20991;-74
2022/07/04 11:39:22;;;;;;;2.90;1.77;;;46.60;21.60;;;;;;5072852;28;20427;-73
2022/07/04 11:47:25;;;;;;;1.47;1.30;;;43.00;24.50;;;;;;5075987;28;20466;-74
2022/07/04 11:49:56;;;;;;;3.50;2.27;;;42.10;23.80;;;;;;5075526;28;20410;-73
2022/07/04 11:52:23;;;;;;;1.27;1.10;;;41.20;25.60;;;;;;5075536;28;20474;-72
2022/07/04 11:54:51;;;;;;;3.40;2.17;;;41.60;25.70;;;;;;5075364;28;20449;-74
2022/07/04 11:57:19;;;;;;;1.80;1.30;;;42.30;25.70;;;;;;5075437;28;20437;-74
2022/07/04 11:59:52;;;;;;;1.90;1.80;;;43.50;25.00;;;;;;5075286;28;20424;-73
2022/07/04 12:02:18;;;;;;;3.47;2.10;;;43.40;24.60;;;;;;5075440;28;20389;-73
2022/07/04 12:04:43;;;;;;;2.40;2.17;;;44.00;24.60;;;;;;5075026;28;20796;-74
2022/07/04 12:07:14;;;;;;;1.67;1.40;;;44.20;24.60;;;;;;5075338;28;20400;-74
2022/07/04 12:09:41;;;;;;;4.67;3.60;;;44.50;24.20;;;;;;5075321;28;20288;-74
2022/07/04 12:12:07;;;;;;;1.80;1.53;;;44.40;22.80;;;;;;5074228;28;20432;-74
2022/07/04 12:14:33;;;;;;;1.53;1.43;;;45.20;23.50;;;;;;5073586;28;20398;-74
2022/07/04 12:17:12;;;;;;;1.70;1.60;;;45.30;22.90;;;;;;5074738;28;20486;-74
2022/07/04 12:19:48;;;;;;;1.53;1.43;;;44.70;23.10;;;;;;5075118;28;20847;-74
2022/07/04 12:22:23;;;;;;;1.40;1.30;;;44.90;23.80;;;;;;5075305;28;20711;-73
2022/07/04 12:24:49;;;;;;;1.60;1.50;;;45.50;22.80;;;;;;5074554;28;20362;-73
2022/07/04 12:27:20;;;;;;;2.30;1.40;;;45.50;22.40;;;;;;5075355;28;20747;-74
2022/07/04 12:29:49;;;;;;;1.30;1.20;;;45.50;22.90;;;;;;5075385;28;20687;-75
2022/07/04 12:32:15;;;;;;;1.50;1.40;;;46.20;22.00;;;;;;5076280;28;20430;-74
2022/07/04 12:34:41;;;;;;;1.67;1.40;;;44.60;22.40;;;;;;5074667;28;20491;-74
2022/07/04 12:37:09;;;;;;;1.50;1.40;;;43.40;23.00;;;;;;5074857;28;20585;-76
2022/07/04 12:39:38;;;;;;;1.57;1.30;;;43.00;23.50;;;;;;5073563;28;20186;-73
2022/07/04 12:42:08;;;;;;;2.33;1.20;;;42.60;23.40;;;;;;5076477;28;20390;-74
2022/07/04 12:44:34;;;;;;;1.87;1.40;;;41.90;23.90;;;;;;5075100;28;20438;-74
2022/07/04 12:47:00;;;;;;;1.20;1.10;;;42.20;24.80;;;;;;5075059;28;20423;-73
2022/07/04 12:49:25;;;;;;;1.40;1.30;;;43.20;24.80;;;;;;5074570;28;20722;-73
2022/07/04 12:51:51;;;;;;;2.13;1.20;;;43.80;24.10;;;;;;5073397;28;20259;-73
2022/07/04 12:54:17;;;;;;;1.20;1.10;;;43.80;23.70;;;;;;5075529;28;20182;-74
2022/07/04 12:56:46;;;;;;;1.30;1.20;;;43.60;23.90;;;;;;5076731;28;20430;-74
2022/07/04 12:59:14;;;;;;;1.10;1.00;;;43.60;24.10;;;;;;5076584;28;20232;-74
2022/07/04 13:01:42;;;;;;;1.53;1.20;;;43.30;23.90;;;;;;5074373;28;20375;-74
2022/07/04 13:04:08;;;;;;;2.00;1.40;;;43.00;24.00;;;;;;5073038;28;20383;-74
2022/07/04 13:06:34;;;;;;;1.33;1.23;;;43.00;23.70;;;;;;5074101;28;20411;-74
2022/07/04 13:09:00;;;;;;;5.23;1.37;;;43.20;24.70;;;;;;5074266;28;20444;-74
2022/07/04 13:14:10;;;;;;;2.70;2.50;;;41.10;23.80;;;;;;5074525;28;20462;-74